Cacapava, Brazil
Current Conditions -  °F | °C
As of 4:00 PM on Thursday 30 Oct 2014 (Local Time) from SBSJ Reporting Station
Scattered Clouds Scattered Clouds  
Wind Chill: 95°   Ceiling: Unl
Heat Index: 95°   Visibility: 6mi
Dew Point: 50°   Wind: 10mph
Humidity: 22%   Direction: 340°NNW
Pressure: 29.83"   Gusts: NA
Location:  23.1°S, 45.71°W
Report Text: SBSJ 301800Z 34009KT 9999 SCT020 35/10 Q1010
Loading
Personal Weather Stations






























Interactive Weather Map
Tropical Storm Tracking
New forecast layout! Learn more

10-Day Weather Forecast

Advertisements
Track Severe Weather on mobile